Time;durP1;ratioP1;P1;durP2;ratioP2;P2;SDS_P1;SDS_P2;PMS_P1;PMS_P2;Temp;Humidity;BMP_temperature;BMP_pressure;BME280_temperature;BME280_humidity;BME280_pressure;Samples;Min_cycle;Max_cycle;Signal;HPM_P1;HPM_P2
2021/03/07 00:02:24;;;;;;;8.40;7.60;;;;;;;;;;5111027;28;20592;-42
2021/03/07 00:04:49;;;;;;;8.67;7.87;;;;;;;;;;5111501;28;20184;-42
2021/03/07 00:07:14;;;;;;;8.83;7.93;;;;;;;;;;5110752;28;20581;-42
2021/03/07 00:09:40;;;;;;;8.13;7.33;;;;;;;;;;5110466;28;20173;-42
2021/03/07 00:12:05;;;;;;;7.73;7.03;;;;;;;;;;5111219;28;20188;-42
2021/03/07 00:14:30;;;;;;;7.47;6.87;;;;;;;;;;5110930;28;20215;-42
2021/03/07 00:16:55;;;;;;;7.33;6.73;;;;;;;;;;5111101;28;20606;-42
2021/03/07 00:19:20;;;;;;;7.00;6.40;;;;;;;;;;5111197;28;20188;-42
2021/03/07 00:21:45;;;;;;;7.67;6.40;;;;;;;;;;5110607;28;20692;-42
2021/03/07 00:24:11;;;;;;;7.38;6.57;;;;;;;;;;5110855;28;20758;-43
2021/03/07 00:26:36;;;;;;;7.07;6.47;;;;;;;;;;5110258;28;21075;-43
2021/03/07 00:29:01;;;;;;;6.40;5.90;;;;;;;;;;5110871;28;20178;-43
2021/03/07 00:31:26;;;;;;;6.87;6.30;;;;;;;;;;5110260;28;20170;-43
2021/03/07 00:33:51;;;;;;;7.57;6.93;;;;;;;;;;5111008;28;20661;-43
2021/03/07 00:36:17;;;;;;;7.20;6.50;;;;;;;;;;5109930;28;20699;-43
2021/03/07 00:38:42;;;;;;;6.87;6.23;;;;;;;;;;5111084;28;20223;-43
2021/03/07 00:41:07;;;;;;;7.05;6.45;;;;;;;;;;5110426;28;20882;-43
2021/03/07 00:43:32;;;;;;;7.50;6.90;;;;;;;;;;5110269;28;20169;-43
2021/03/07 00:45:57;;;;;;;7.18;6.47;;;;;;;;;;5110409;28;20182;-43
2021/03/07 00:48:22;;;;;;;7.43;6.73;;;;;;;;;;5110776;28;20500;-43
2021/03/07 00:50:48;;;;;;;7.50;6.90;;;;;;;;;;5110065;28;20176;-43
2021/03/07 00:53:13;;;;;;;7.68;6.97;;;;;;;;;;5110074;28;20253;-42
2021/03/07 00:55:38;;;;;;;7.13;6.43;;;;;;;;;;5108884;28;20209;-42
2021/03/07 00:58:03;;;;;;;7.32;6.63;;;;;;;;;;5116679;27;20249;-42
2021/03/07 01:00:29;;;;;;;6.27;5.77;;;;;;;;;;5121979;27;20188;-41
2021/03/07 01:02:55;;;;;;;6.93;6.20;;;;;;;;;;5110184;28;20189;-41
2021/03/07 01:05:29;;;;;;;7.57;6.70;;;;;;;;;;5109798;28;21235;-42
2021/03/07 01:07:54;;;;;;;7.33;6.60;;;;;;;;;;5110166;28;20255;-42
2021/03/07 01:10:24;;;;;;;6.87;6.27;;;;;;;;;;5109810;28;20703;-42
2021/03/07 01:12:50;;;;;;;7.23;6.70;;;;;;;;;;5108403;28;20174;-42
2021/03/07 01:15:17;;;;;;;9.70;7.10;;;;;;;;;;5110375;28;21203;-43
2021/03/07 01:17:42;;;;;;;11.63;10.47;;;;;;;;;;5110115;28;20162;-43
2021/03/07 01:20:09;;;;;;;13.07;11.60;;;;;;;;;;5110254;28;20806;-42
2021/03/07 01:22:34;;;;;;;12.47;11.20;;;;;;;;;;5109625;28;20253;-42
2021/03/07 01:24:59;;;;;;;13.47;12.13;;;;;;;;;;5109912;28;21027;-42
2021/03/07 01:27:24;;;;;;;17.40;15.00;;;;;;;;;;5109334;28;20187;-43
2021/03/07 01:29:50;;;;;;;14.93;13.43;;;;;;;;;;5109852;28;20166;-42
2021/03/07 01:32:15;;;;;;;15.70;14.02;;;;;;;;;;5109351;28;20196;-43
2021/03/07 01:34:40;;;;;;;14.83;13.43;;;;;;;;;;5109865;28;20702;-44
2021/03/07 01:37:05;;;;;;;15.02;13.73;;;;;;;;;;5108950;28;20168;-42
2021/03/07 01:39:30;;;;;;;14.53;13.23;;;;;;;;;;5109087;28;20229;-43
2021/03/07 01:41:55;;;;;;;15.52;13.98;;;;;;;;;;5109492;28;20174;-43
2021/03/07 01:44:20;;;;;;;15.50;13.90;;;;;;;;;;5110223;28;20177;-43
2021/03/07 01:46:46;;;;;;;16.08;13.68;;;;;;;;;;5109357;28;20536;-43
2021/03/07 01:49:11;;;;;;;13.20;11.90;;;;;;;;;;5109257;28;20202;-43
2021/03/07 01:51:36;;;;;;;12.73;11.43;;;;;;;;;;5109552;28;20261;-43
2021/03/07 01:54:01;;;;;;;10.60;9.60;;;;;;;;;;5108929;28;20233;-43
2021/03/07 01:56:27;;;;;;;11.10;10.10;;;;;;;;;;5108906;28;20206;-43
2021/03/07 01:58:54;;;;;;;11.87;10.67;;;;;;;;;;5109582;28;20181;-43
2021/03/07 02:01:19;;;;;;;10.60;9.67;;;;;;;;;;5108268;28;20614;-43
2021/03/07 02:03:53;;;;;;;10.37;9.37;;;;;;;;;;5109405;28;20961;-43
2021/03/07 02:06:19;;;;;;;11.03;9.47;;;;;;;;;;5109276;28;20235;-44
2021/03/07 02:08:44;;;;;;;11.03;9.83;;;;;;;;;;5114118;28;20608;-44
2021/03/07 02:11:09;;;;;;;10.73;9.70;;;;;;;;;;5109052;28;20616;-42
2021/03/07 02:13:37;;;;;;;11.17;10.07;;;;;;;;;;5109343;28;20208;-43
2021/03/07 02:16:07;;;;;;;10.60;9.70;;;;;;;;;;5108227;28;20668;-43
2021/03/07 02:18:33;;;;;;;10.30;9.20;;;;;;;;;;5109125;28;20600;-43
2021/03/07 02:21:01;;;;;;;10.03;8.80;;;;;;;;;;5108944;28;20958;-43
2021/03/07 02:23:29;;;;;;;8.00;7.30;;;;;;;;;;5107822;28;21127;-43
2021/03/07 02:25:55;;;;;;;10.63;9.73;;;;;;;;;;5108890;28;20630;-44
2021/03/07 02:28:20;;;;;;;9.60;8.60;;;;;;;;;;5109156;28;20591;-44
2021/03/07 02:30:45;;;;;;;10.13;9.03;;;;;;;;;;5108861;28;20176;-41
2021/03/07 02:33:18;;;;;;;9.37;8.53;;;;;;;;;;5109185;28;20181;-42
2021/03/07 02:35:46;;;;;;;9.33;7.90;;;;;;;;;;5103066;28;20208;-42
2021/03/07 02:38:13;;;;;;;10.50;9.40;;;;;;;;;;5108332;28;20592;-43
2021/03/07 02:40:38;;;;;;;10.23;9.27;;;;;;;;;;5108919;28;20619;-42
2021/03/07 02:43:06;;;;;;;10.50;9.40;;;;;;;;;;5108818;28;20942;-42
2021/03/07 02:45:31;;;;;;;11.47;10.10;;;;;;;;;;5109165;28;20190;-43
2021/03/07 02:47:57;;;;;;;13.80;9.50;;;;;;;;;;5108407;28;20689;-43
2021/03/07 02:50:27;;;;;;;12.00;9.20;;;;;;;;;;5110405;28;20182;-43
2021/03/07 02:52:56;;;;;;;11.03;9.90;;;;;;;;;;5108928;28;20982;-43
2021/03/07 02:55:24;;;;;;;10.77;9.60;;;;;;;;;;5108748;28;20654;-43
2021/03/07 02:57:50;;;;;;;10.10;9.10;;;;;;;;;;5108441;28;20595;-43
2021/03/07 03:00:16;;;;;;;12.27;10.10;;;;;;;;;;5108521;28;20592;-43
2021/03/07 03:02:42;;;;;;;11.77;9.60;;;;;;;;;;5109310;28;20634;-43
2021/03/07 03:05:08;;;;;;;12.87;10.20;;;;;;;;;;5108548;28;20666;-43
2021/03/07 03:07:33;;;;;;;10.60;9.50;;;;;;;;;;5108790;28;20186;-44
2021/03/07 03:10:00;;;;;;;11.43;9.67;;;;;;;;;;5108454;28;20595;-43
2021/03/07 03:12:28;;;;;;;11.00;9.50;;;;;;;;;;5108154;28;20172;-43
2021/03/07 03:14:54;;;;;;;12.47;10.37;;;;;;;;;;5108774;28;20792;-44
2021/03/07 03:17:19;;;;;;;11.23;9.20;;;;;;;;;;5107268;28;20707;-43
2021/03/07 03:19:45;;;;;;;12.60;10.70;;;;;;;;;;5111614;28;20199;-43
2021/03/07 03:22:11;;;;;;;11.90;10.70;;;;;;;;;;5112178;28;20287;-43
2021/03/07 03:24:37;;;;;;;11.60;9.97;;;;;;;;;;5112094;27;20661;-43
2021/03/07 03:27:02;;;;;;;11.00;9.50;;;;;;;;;;5106811;28;20603;-43
2021/03/07 03:29:31;;;;;;;12.37;10.90;;;;;;;;;;5111715;28;21003;-44
2021/03/07 03:31:56;;;;;;;12.03;10.00;;;;;;;;;;5112027;28;20184;-43
2021/03/07 03:34:22;;;;;;;13.47;11.87;;;;;;;;;;5111402;28;20613;-43
2021/03/07 03:36:47;;;;;;;12.10;10.63;;;;;;;;;;5112039;28;20197;-45
2021/03/07 03:39:14;;;;;;;12.17;10.83;;;;;;;;;;5111300;28;20185;-43
2021/03/07 03:41:40;;;;;;;13.53;10.70;;;;;;;;;;5111834;28;20173;-42
2021/03/07 03:44:07;;;;;;;10.20;9.10;;;;;;;;;;5112185;28;20602;-43
2021/03/07 03:46:36;;;;;;;14.50;11.63;;;;;;;;;;5111118;28;20677;-43
2021/03/07 03:49:03;;;;;;;14.60;11.40;;;;;;;;;;5111781;28;20582;-43
2021/03/07 03:51:29;;;;;;;13.17;11.50;;;;;;;;;;5111100;28;20602;-43
2021/03/07 03:53:55;;;;;;;16.23;11.97;;;;;;;;;;5111381;28;20675;-44
2021/03/07 03:56:22;;;;;;;13.37;11.37;;;;;;;;;;5109367;28;20702;-43
2021/03/07 03:58:48;;;;;;;14.33;12.00;;;;;;;;;;5111714;28;20610;-43
2021/03/07 04:01:16;;;;;;;14.43;12.53;;;;;;;;;;5111242;28;21184;-43
2021/03/07 04:03:42;;;;;;;15.40;12.53;;;;;;;;;;5111880;28;20267;-44
2021/03/07 04:06:07;;;;;;;15.10;12.50;;;;;;;;;;5111369;28;20695;-43
2021/03/07 04:08:33;;;;;;;15.43;12.70;;;;;;;;;;5111053;28;20752;-43
2021/03/07 04:10:58;;;;;;;18.60;13.50;;;;;;;;;;5111177;28;20182;-44
2021/03/07 04:13:25;;;;;;;20.10;14.97;;;;;;;;;;5127544;27;20184;-44
2021/03/07 04:15:51;;;;;;;19.10;14.63;;;;;;;;;;5111800;27;20262;-44
2021/03/07 04:18:17;;;;;;;19.17;14.63;;;;;;;;;;5110136;28;20591;-43
2021/03/07 04:20:43;;;;;;;18.90;15.40;;;;;;;;;;5110623;28;20982;-43
2021/03/07 04:23:09;;;;;;;18.20;15.70;;;;;;;;;;5110586;28;20165;-43
2021/03/07 04:25:34;;;;;;;20.63;15.60;;;;;;;;;;5110491;28;20597;-43
2021/03/07 04:28:00;;;;;;;18.30;15.23;;;;;;;;;;5111129;28;20553;-43
2021/03/07 04:30:25;;;;;;;19.27;16.47;;;;;;;;;;5110080;28;20186;-43
2021/03/07 04:32:51;;;;;;;21.90;16.60;;;;;;;;;;5110951;28;20178;-43
2021/03/07 04:35:17;;;;;;;19.93;15.57;;;;;;;;;;5110481;28;20281;-43
2021/03/07 04:37:42;;;;;;;19.73;15.20;;;;;;;;;;5110198;28;21159;-43
2021/03/07 04:40:08;;;;;;;18.60;14.93;;;;;;;;;;5110913;28;20194;-43
2021/03/07 04:42:33;;;;;;;17.57;14.30;;;;;;;;;;5110370;28;20178;-43
2021/03/07 04:44:58;;;;;;;18.80;14.67;;;;;;;;;;5110982;28;20179;-43
2021/03/07 04:47:23;;;;;;;19.15;15.38;;;;;;;;;;5109478;28;20189;-42
2021/03/07 04:49:48;;;;;;;18.10;14.77;;;;;;;;;;5110481;28;20195;-42
2021/03/07 04:52:14;;;;;;;21.42;15.40;;;;;;;;;;5110634;28;20186;-42
2021/03/07 04:54:39;;;;;;;19.57;16.23;;;;;;;;;;5109739;28;20556;-42
2021/03/07 04:57:05;;;;;;;17.17;13.98;;;;;;;;;;5109979;28;20534;-42
2021/03/07 04:59:30;;;;;;;19.13;14.87;;;;;;;;;;5109501;28;20546;-42
2021/03/07 05:01:55;;;;;;;18.50;14.83;;;;;;;;;;5110272;28;20909;-42
2021/03/07 05:04:21;;;;;;;16.23;13.70;;;;;;;;;;5108746;28;20672;-42
2021/03/07 05:06:46;;;;;;;17.33;14.23;;;;;;;;;;5110281;28;20176;-42
2021/03/07 05:09:11;;;;;;;17.95;15.30;;;;;;;;;;5110429;28;20189;-43
2021/03/07 05:11:36;;;;;;;17.60;15.70;;;;;;;;;;5110092;28;20587;-43
2021/03/07 05:14:02;;;;;;;17.67;13.97;;;;;;;;;;5110767;28;20878;-42
2021/03/07 05:16:27;;;;;;;17.20;13.63;;;;;;;;;;5109205;28;20209;-43
2021/03/07 05:18:53;;;;;;;20.43;15.67;;;;;;;;;;5109600;28;20184;-42
2021/03/07 05:21:18;;;;;;;15.82;13.98;;;;;;;;;;5109395;28;20208;-42
2021/03/07 05:23:43;;;;;;;18.13;15.17;;;;;;;;;;5109642;28;20184;-42
2021/03/07 05:26:08;;;;;;;18.27;14.10;;;;;;;;;;5098512;28;20227;-43
2021/03/07 05:28:35;;;;;;;17.05;14.65;;;;;;;;;;5108917;28;20178;-43
2021/03/07 05:31:00;;;;;;;15.97;13.73;;;;;;;;;;5109187;28;20178;-43
2021/03/07 05:33:26;;;;;;;15.10;12.90;;;;;;;;;;5109799;28;20702;-43
2021/03/07 05:35:51;;;;;;;14.95;11.93;;;;;;;;;;5109224;28;20221;-43
2021/03/07 05:38:16;;;;;;;14.63;12.77;;;;;;;;;;5109193;28;20192;-43
2021/03/07 05:40:42;;;;;;;11.80;10.60;;;;;;;;;;5108514;28;20239;-43
2021/03/07 05:43:07;;;;;;;14.90;12.00;;;;;;;;;;5109515;28;20178;-44
2021/03/07 05:45:33;;;;;;;16.20;11.47;;;;;;;;;;5109130;28;20188;-43
2021/03/07 05:47:58;;;;;;;14.47;12.47;;;;;;;;;;5109386;28;21177;-43
2021/03/07 05:50:23;;;;;;;13.33;10.83;;;;;;;;;;5109587;28;20182;-43
2021/03/07 05:52:49;;;;;;;11.73;10.53;;;;;;;;;;5109134;28;20198;-44
2021/03/07 05:55:15;;;;;;;12.57;10.77;;;;;;;;;;5091085;28;20220;-44
2021/03/07 05:57:43;;;;;;;12.57;10.33;;;;;;;;;;5107956;28;20587;-42
2021/03/07 06:00:08;;;;;;;14.80;10.80;;;;;;;;;;5108843;28;20632;-43
2021/03/07 06:02:34;;;;;;;13.40;10.53;;;;;;;;;;5108927;28;20691;-43
2021/03/07 06:04:59;;;;;;;11.60;10.48;;;;;;;;;;5109345;28;20666;-43
2021/03/07 06:07:24;;;;;;;10.97;9.87;;;;;;;;;;5108427;28;20180;-44
2021/03/07 06:10:08;;;;;;;11.47;9.80;;;;;;;;;;5108857;28;20226;-44
2021/03/07 06:12:34;;;;;;;10.60;9.50;;;;;;;;;;5107513;28;20264;-43
2021/03/07 06:15:00;;;;;;;9.87;8.63;;;;;;;;;;5108999;28;20753;-42
2021/03/07 06:17:36;;;;;;;12.20;8.90;;;;;;;;;;5109354;28;20253;-42
2021/03/07 06:20:03;;;;;;;10.73;8.90;;;;;;;;;;5109426;28;20719;-42
2021/03/07 06:22:29;;;;;;;11.57;10.40;;;;;;;;;;5109275;28;20685;-43
2021/03/07 06:24:54;;;;;;;12.17;9.73;;;;;;;;;;5108257;28;21021;-43
2021/03/07 06:27:20;;;;;;;12.03;9.10;;;;;;;;;;5107209;28;20245;-43
2021/03/07 06:30:11;;;;;;;12.57;10.03;;;;;;;;;;5108286;28;20173;-43
2021/03/07 06:32:37;;;;;;;12.10;9.70;;;;;;;;;;5105409;28;20201;-43
2021/03/07 06:35:03;;;;;;;11.43;9.35;;;;;;;;;;5108477;28;20646;-43
2021/03/07 06:37:28;;;;;;;13.60;9.37;;;;;;;;;;5105625;28;20177;-43
2021/03/07 06:39:54;;;;;;;10.17;9.17;;;;;;;;;;5107603;28;20723;-43
2021/03/07 06:42:19;;;;;;;11.07;9.03;;;;;;;;;;5108687;28;20174;-43
2021/03/07 06:45:01;;;;;;;9.63;8.73;;;;;;;;;;5108174;28;20170;-43
2021/03/07 06:47:27;;;;;;;10.30;8.90;;;;;;;;;;5096501;28;20572;-45
2021/03/07 06:50:11;;;;;;;10.60;9.57;;;;;;;;;;5108362;28;20592;-43
2021/03/07 06:52:51;;;;;;;10.30;9.30;;;;;;;;;;5108497;28;20612;-43
2021/03/07 06:55:17;;;;;;;10.43;9.33;;;;;;;;;;5095743;28;20666;-43
2021/03/07 06:57:42;;;;;;;10.60;9.50;;;;;;;;;;5113907;27;21162;-43
2021/03/07 07:00:08;;;;;;;10.07;8.90;;;;;;;;;;5112082;27;20636;-44
2021/03/07 07:02:33;;;;;;;10.80;9.70;;;;;;;;;;5112327;28;20647;-43
2021/03/07 07:04:58;;;;;;;10.17;9.00;;;;;;;;;;5112157;28;20169;-43
2021/03/07 07:07:25;;;;;;;10.20;9.20;;;;;;;;;;5112006;28;20569;-44
2021/03/07 07:09:58;;;;;;;10.17;8.73;;;;;;;;;;5111966;28;20186;-44
2021/03/07 07:12:24;;;;;;;11.50;8.83;;;;;;;;;;5111381;27;20680;-42
2021/03/07 07:14:51;;;;;;;10.30;8.67;;;;;;;;;;5111613;28;20651;-42
2021/03/07 07:17:19;;;;;;;11.27;10.07;;;;;;;;;;5112031;28;20693;-42
2021/03/07 07:19:45;;;;;;;8.80;7.90;;;;;;;;;;5112769;28;20564;-43
2021/03/07 07:22:12;;;;;;;9.77;8.50;;;;;;;;;;5111956;27;20614;-42
2021/03/07 07:24:38;;;;;;;9.63;8.73;;;;;;;;;;5108610;28;20629;-41
2021/03/07 07:27:03;;;;;;;9.70;8.00;;;;;;;;;;5102320;27;20606;-42
2021/03/07 07:29:28;;;;;;;8.40;7.60;;;;;;;;;;5106452;28;20603;-43
2021/03/07 07:32:00;;;;;;;9.27;8.37;;;;;;;;;;5108658;28;20568;-50
2021/03/07 07:34:28;;;;;;;9.57;8.57;;;;;;;;;;5108219;28;20189;-44
2021/03/07 07:36:56;;;;;;;9.13;8.17;;;;;;;;;;5107154;28;21177;-43
2021/03/07 07:39:38;;;;;;;8.70;7.87;;;;;;;;;;5106780;28;20693;-43
2021/03/07 07:42:22;;;;;;;8.90;8.00;;;;;;;;;;5102298;27;20635;-43
2021/03/07 07:44:47;;;;;;;8.50;7.70;;;;;;;;;;5105394;28;21168;-43
2021/03/07 07:47:12;;;;;;;9.00;8.20;;;;;;;;;;5107183;28;20607;-42
2021/03/07 07:49:41;;;;;;;8.87;8.00;;;;;;;;;;5106773;28;20457;-43
2021/03/07 07:52:25;;;;;;;8.80;8.00;;;;;;;;;;5106660;28;20182;-42
2021/03/07 07:54:54;;;;;;;9.40;8.33;;;;;;;;;;5108439;28;20695;-44
2021/03/07 07:57:35;;;;;;;10.40;8.10;;;;;;;;;;5108528;28;20581;-42
2021/03/07 08:00:05;;;;;;;9.43;8.00;;;;;;;;;;5104450;28;20603;-42
2021/03/07 08:02:46;;;;;;;9.00;8.10;;;;;;;;;;5106324;28;20966;-44
2021/03/07 08:05:20;;;;;;;9.20;8.30;;;;;;;;;;5102397;28;20725;-43
2021/03/07 08:07:58;;;;;;;9.33;8.43;;;;;;;;;;5105257;28;20595;-43
2021/03/07 08:10:39;;;;;;;9.90;7.60;;;;;;;;;;5107557;28;20603;-42
2021/03/07 08:13:04;;;;;;;9.73;8.73;;;;;;;;;;5109879;28;20607;-43
2021/03/07 08:15:31;;;;;;;11.57;9.63;;;;;;;;;;5109028;28;21233;-43
2021/03/07 08:17:57;;;;;;;9.63;8.63;;;;;;;;;;5110248;28;20239;-43
2021/03/07 08:20:37;;;;;;;10.03;8.57;;;;;;;;;;5110244;27;20771;-43
2021/03/07 08:23:03;;;;;;;10.47;9.10;;;;;;;;;;5110080;28;20189;-43
2021/03/07 08:25:47;;;;;;;9.43;8.53;;;;;;;;;;5110835;28;20654;-43
2021/03/07 08:28:41;;;;;;;10.47;9.40;;;;;;;;;;5110264;28;20216;-42
2021/03/07 08:31:08;;;;;;;10.13;9.10;;;;;;;;;;5108538;28;20607;-42
2021/03/07 08:33:37;;;;;;;10.00;9.00;;;;;;;;;;5110765;28;21093;-42
2021/03/07 08:36:15;;;;;;;10.20;9.03;;;;;;;;;;5109815;28;20655;-43
2021/03/07 08:38:50;;;;;;;9.50;8.60;;;;;;;;;;5109193;28;20598;-43
2021/03/07 08:41:15;;;;;;;14.97;10.60;;;;;;;;;;5110171;28;20668;-42
2021/03/07 08:43:40;;;;;;;9.10;8.20;;;;;;;;;;5110364;28;20591;-42
2021/03/07 08:46:10;;;;;;;10.23;9.10;;;;;;;;;;5109504;28;20257;-42
2021/03/07 08:48:36;;;;;;;10.57;9.50;;;;;;;;;;5104538;27;20734;-43
2021/03/07 08:51:02;;;;;;;8.80;7.90;;;;;;;;;;5110477;28;20585;-42
2021/03/07 08:53:28;;;;;;;9.17;8.27;;;;;;;;;;5108695;28;20643;-42
2021/03/07 08:55:54;;;;;;;8.43;7.63;;;;;;;;;;5108203;28;20205;-42
2021/03/07 08:58:19;;;;;;;8.77;7.97;;;;;;;;;;5109818;28;20628;-43
2021/03/07 09:00:45;;;;;;;26.77;18.63;;;;;;;;;;5105614;28;20170;-43
2021/03/07 09:03:13;;;;;;;13.00;10.03;;;;;;;;;;5099496;28;20214;-44
2021/03/07 09:05:39;;;;;;;8.77;7.87;;;;;;;;;;5110350;28;20178;-42
2021/03/07 09:08:04;;;;;;;10.07;8.73;;;;;;;;;;5109168;28;20611;-43
2021/03/07 09:10:30;;;;;;;8.20;7.40;;;;;;;;;;5110154;28;20175;-43
2021/03/07 09:13:04;;;;;;;8.60;7.63;;;;;;;;;;5109843;28;20181;-42
2021/03/07 09:15:29;;;;;;;8.07;7.30;;;;;;;;;;5109246;28;20683;-43
2021/03/07 09:17:54;;;;;;;7.78;7.05;;;;;;;;;;5109615;28;20633;-43
2021/03/07 09:20:20;;;;;;;8.82;6.68;;;;;;;;;;5109455;28;20629;-42
2021/03/07 09:22:45;;;;;;;7.53;6.80;;;;;;;;;;5108837;28;20181;-43
2021/03/07 09:25:10;;;;;;;7.60;7.00;;;;;;;;;;5110158;28;20196;-43
2021/03/07 09:27:42;;;;;;;9.07;7.40;;;;;;;;;;5109507;28;20740;-44
2021/03/07 09:30:14;;;;;;;7.57;6.57;;;;;;;;;;5109499;28;20184;-44
2021/03/07 09:32:44;;;;;;;7.73;7.03;;;;;;;;;;5109725;28;20647;-44
2021/03/07 09:35:20;;;;;;;7.60;6.90;;;;;;;;;;5108472;28;20631;-42
2021/03/07 09:38:04;;;;;;;8.20;7.40;;;;;;;;;;5108663;28;20610;-44
2021/03/07 09:40:31;;;;;;;7.90;7.13;;;;;;;;;;5109314;28;20629;-43
2021/03/07 09:42:58;;;;;;;8.70;7.80;;;;;;;;;;5109284;28;20564;-41
2021/03/07 09:45:24;;;;;;;7.23;6.70;;;;;;;;;;5109441;28;20587;-42
2021/03/07 09:47:50;;;;;;;7.83;7.10;;;;;;;;;;5109925;28;20575;-43
2021/03/07 09:50:16;;;;;;;7.77;7.07;;;;;;;;;;5109495;28;20182;-44
2021/03/07 09:52:42;;;;;;;8.63;7.93;;;;;;;;;;5108484;28;20626;-42
2021/03/07 09:55:07;;;;;;;8.67;7.80;;;;;;;;;;5108861;28;21385;-48
2021/03/07 09:57:32;;;;;;;8.10;7.40;;;;;;;;;;5109314;28;20588;-43
2021/03/07 09:59:57;;;;;;;8.25;7.47;;;;;;;;;;5108557;28;20204;-43
2021/03/07 10:02:32;;;;;;;10.95;7.63;;;;;;;;;;5109684;28;20177;-42
2021/03/07 10:05:08;;;;;;;9.13;8.30;;;;;;;;;;5107482;28;20266;-44
2021/03/07 10:07:33;;;;;;;12.03;8.70;;;;;;;;;;5107971;28;20602;-42
2021/03/07 10:10:00;;;;;;;9.13;8.20;;;;;;;;;;5109099;28;20606;-42
2021/03/07 10:12:37;;;;;;;20.80;18.60;;;;;;;;;;5108936;28;20212;-43
2021/03/07 10:15:03;;;;;;;11.70;10.70;;;;;;;;;;5109235;28;20632;-42
2021/03/07 10:17:34;;;;;;;9.50;8.60;;;;;;;;;;5108808;28;20580;-43
2021/03/07 10:20:03;;;;;;;12.13;11.03;;;;;;;;;;5109380;28;20212;-43
2021/03/07 10:22:34;;;;;;;9.50;8.80;;;;;;;;;;5107672;28;20604;-43
2021/03/07 10:24:59;;;;;;;8.37;7.43;;;;;;;;;;5109324;28;20607;-43
2021/03/07 10:27:29;;;;;;;8.32;7.63;;;;;;;;;;5110230;28;20603;-43
2021/03/07 10:29:54;;;;;;;8.73;7.83;;;;;;;;;;5113156;28;20263;-43
2021/03/07 10:32:19;;;;;;;8.03;7.10;;;;;;;;;;5112284;28;21052;-42
2021/03/07 10:34:52;;;;;;;7.63;6.93;;;;;;;;;;5112352;28;20203;-44
2021/03/07 10:37:37;;;;;;;7.50;6.90;;;;;;;;;;5112219;28;20181;-42
2021/03/07 10:40:03;;;;;;;8.07;7.47;;;;;;;;;;5101726;28;20615;-42
2021/03/07 10:42:33;;;;;;;8.17;7.47;;;;;;;;;;5112232;28;21445;-42
2021/03/07 10:45:19;;;;;;;7.90;7.20;;;;;;;;;;5113215;28;20595;-43
2021/03/07 10:47:57;;;;;;;9.30;8.50;;;;;;;;;;5093141;28;20964;-43
2021/03/07 10:50:22;;;;;;;9.07;8.27;;;;;;;;;;5099166;28;20711;-42
2021/03/07 10:52:47;;;;;;;8.38;7.75;;;;;;;;;;5111995;28;20756;-42
2021/03/07 10:55:13;;;;;;;9.55;8.85;;;;;;;;;;5112559;28;20695;-42
2021/03/07 10:57:38;;;;;;;9.20;8.30;;;;;;;;;;5112893;28;20194;-42
2021/03/07 11:00:04;;;;;;;10.03;9.03;;;;;;;;;;5111734;28;20579;-42
2021/03/07 11:02:29;;;;;;;8.90;8.10;;;;;;;;;;5112741;28;20540;-42
2021/03/07 11:04:54;;;;;;;9.73;8.83;;;;;;;;;;5111283;28;20193;-43
2021/03/07 11:07:19;;;;;;;9.10;8.40;;;;;;;;;;5111057;28;20580;-42
2021/03/07 11:09:45;;;;;;;9.37;8.47;;;;;;;;;;5111918;28;20680;-42
2021/03/07 11:12:10;;;;;;;8.68;8.07;;;;;;;;;;5112944;28;20270;-42
2021/03/07 11:14:35;;;;;;;7.93;7.33;;;;;;;;;;5112262;28;20178;-43
2021/03/07 11:17:00;;;;;;;9.50;8.60;;;;;;;;;;5096862;28;20178;-43
2021/03/07 11:19:25;;;;;;;8.07;7.47;;;;;;;;;;5092068;28;20222;-43
2021/03/07 11:21:51;;;;;;;8.40;7.80;;;;;;;;;;5111633;28;20256;-44
2021/03/07 11:24:16;;;;;;;7.70;7.00;;;;;;;;;;5111274;28;20216;-41
2021/03/07 11:26:41;;;;;;;7.90;7.27;;;;;;;;;;5111998;28;20213;-43
2021/03/07 11:29:06;;;;;;;7.60;7.00;;;;;;;;;;5112424;28;20169;-43
2021/03/07 11:31:32;;;;;;;7.77;7.17;;;;;;;;;;5102530;28;20208;-43
2021/03/07 11:33:57;;;;;;;8.00;7.30;;;;;;;;;;5091998;28;20171;-43
2021/03/07 11:36:22;;;;;;;8.73;8.03;;;;;;;;;;5109537;28;20216;-43
2021/03/07 11:38:47;;;;;;;9.10;8.40;;;;;;;;;;5109754;27;20180;-43
2021/03/07 11:41:13;;;;;;;9.07;8.17;;;;;;;;;;5093880;28;20547;-43
2021/03/07 11:43:38;;;;;;;9.55;8.65;;;;;;;;;;5095261;28;20765;-42
2021/03/07 11:46:03;;;;;;;9.57;8.70;;;;;;;;;;5104284;28;20408;-42
2021/03/07 11:48:28;;;;;;;10.37;9.57;;;;;;;;;;5102984;28;20194;-43
2021/03/07 11:50:53;;;;;;;9.60;8.70;;;;;;;;;;5111837;28;20172;-50
2021/03/07 11:53:18;;;;;;;9.77;8.83;;;;;;;;;;5109822;28;20223;-45
2021/03/07 11:55:44;;;;;;;9.23;8.43;;;;;;;;;;5111694;28;20218;-43
2021/03/07 11:58:09;;;;;;;9.27;8.48;;;;;;;;;;5093150;28;20566;-43
2021/03/07 12:00:34;;;;;;;10.10;9.20;;;;;;;;;;5111124;28;20262;-43
2021/03/07 12:02:59;;;;;;;10.23;9.25;;;;;;;;;;5110081;28;20180;-43
2021/03/07 12:05:25;;;;;;;9.50;8.70;;;;;;;;;;5111540;28;20640;-43
2021/03/07 12:07:50;;;;;;;10.50;9.50;;;;;;;;;;5109964;28;20280;-43
2021/03/07 12:10:16;;;;;;;10.20;9.18;;;;;;;;;;5111120;28;20628;-42
2021/03/07 12:12:41;;;;;;;9.37;8.57;;;;;;;;;;5110695;28;20205;-42
2021/03/07 12:15:06;;;;;;;10.90;10.00;;;;;;;;;;5111375;28;20634;-42
2021/03/07 12:17:32;;;;;;;9.50;8.80;;;;;;;;;;5110303;28;20180;-42
2021/03/07 12:19:57;;;;;;;11.43;10.27;;;;;;;;;;5110418;28;20171;-42
2021/03/07 12:22:22;;;;;;;9.40;8.70;;;;;;;;;;5110408;28;20279;-43
2021/03/07 12:24:47;;;;;;;10.57;9.68;;;;;;;;;;5110861;28;20214;-43
2021/03/07 12:27:12;;;;;;;10.07;9.27;;;;;;;;;;5110827;28;20292;-42
2021/03/07 12:29:37;;;;;;;10.40;9.37;;;;;;;;;;5110758;28;20188;-43
2021/03/07 12:32:06;;;;;;;9.30;8.50;;;;;;;;;;5095947;28;20204;-43
2021/03/07 12:34:32;;;;;;;10.97;10.07;;;;;;;;;;5095501;28;20181;-43
2021/03/07 12:36:57;;;;;;;10.40;9.50;;;;;;;;;;5110736;28;20598;-43
2021/03/07 12:39:22;;;;;;;11.50;10.40;;;;;;;;;;5109501;28;20194;-43
2021/03/07 12:41:48;;;;;;;10.00;9.17;;;;;;;;;;5110592;28;20197;-43
2021/03/07 12:44:13;;;;;;;10.43;9.63;;;;;;;;;;5110633;28;20268;-43
2021/03/07 12:46:38;;;;;;;8.80;8.10;;;;;;;;;;5110527;28;20193;-43
2021/03/07 12:49:05;;;;;;;10.40;9.60;;;;;;;;;;5110046;28;20323;-43
2021/03/07 12:51:30;;;;;;;9.30;8.50;;;;;;;;;;5108748;28;20179;-43
2021/03/07 12:53:55;;;;;;;10.20;9.40;;;;;;;;;;5109244;28;20711;-43
2021/03/07 12:56:20;;;;;;;10.00;9.10;;;;;;;;;;5110255;28;20715;-43
2021/03/07 12:58:45;;;;;;;10.75;9.85;;;;;;;;;;5110053;28;20635;-43
2021/03/07 13:01:11;;;;;;;10.40;9.60;;;;;;;;;;5110115;28;20272;-42
2021/03/07 13:03:36;;;;;;;11.80;10.80;;;;;;;;;;5109958;28;20245;-43
2021/03/07 13:06:01;;;;;;;11.23;10.40;;;;;;;;;;5108907;28;20636;-42
2021/03/07 13:08:26;;;;;;;10.93;9.93;;;;;;;;;;5100175;28;20268;-50
2021/03/07 13:10:51;;;;;;;10.20;9.50;;;;;;;;;;5109840;28;20172;-43
2021/03/07 13:13:16;;;;;;;11.38;10.48;;;;;;;;;;5110027;28;20248;-43
2021/03/07 13:15:42;;;;;;;10.70;9.88;;;;;;;;;;5109724;28;20236;-43
2021/03/07 13:18:07;;;;;;;12.87;10.57;;;;;;;;;;5109461;28;20174;-43
2021/03/07 13:20:32;;;;;;;11.73;10.73;;;;;;;;;;5109923;28;20177;-43
2021/03/07 13:22:57;;;;;;;12.25;11.25;;;;;;;;;;5108013;28;20243;-43
2021/03/07 13:25:22;;;;;;;11.03;10.13;;;;;;;;;;5110006;28;20172;-42
2021/03/07 13:27:47;;;;;;;11.47;10.57;;;;;;;;;;5110021;28;20278;-43
2021/03/07 13:30:13;;;;;;;11.50;10.50;;;;;;;;;;5109133;28;20191;-43
2021/03/07 13:32:38;;;;;;;12.30;11.20;;;;;;;;;;5109842;28;20184;-43
2021/03/07 13:35:03;;;;;;;12.13;11.23;;;;;;;;;;5108281;28;20201;-42
2021/03/07 13:37:29;;;;;;;11.77;10.87;;;;;;;;;;5107065;28;20275;-43
2021/03/07 13:39:54;;;;;;;11.90;10.97;;;;;;;;;;5109637;28;20193;-45
2021/03/07 13:42:19;;;;;;;13.05;11.90;;;;;;;;;;5110105;28;20174;-44
2021/03/07 13:44:44;;;;;;;12.50;11.50;;;;;;;;;;5109521;28;20175;-44
2021/03/07 13:47:09;;;;;;;11.93;11.03;;;;;;;;;;5108862;28;20180;-43
2021/03/07 13:49:34;;;;;;;12.90;11.90;;;;;;;;;;5109176;28;20178;-43
2021/03/07 13:51:59;;;;;;;14.40;13.20;;;;;;;;;;5108436;28;20585;-42
2021/03/07 13:54:25;;;;;;;13.57;12.47;;;;;;;;;;5108544;28;20227;-42
2021/03/07 13:56:50;;;;;;;14.07;13.07;;;;;;;;;;5108453;28;20328;-43
2021/03/07 13:59:15;;;;;;;13.83;12.73;;;;;;;;;;5105735;28;20182;-43
2021/03/07 14:01:40;;;;;;;13.53;12.43;;;;;;;;;;5105102;28;20208;-42
2021/03/07 14:04:06;;;;;;;15.70;14.47;;;;;;;;;;5105976;28;20171;-42
2021/03/07 14:06:31;;;;;;;15.00;13.70;;;;;;;;;;5094202;28;20247;-42
2021/03/07 14:08:56;;;;;;;14.25;12.98;;;;;;;;;;5105764;28;20186;-43
2021/03/07 14:11:22;;;;;;;15.97;14.57;;;;;;;;;;5105747;28;20198;-43
2021/03/07 14:13:47;;;;;;;15.57;14.07;;;;;;;;;;5106999;28;20568;-42
2021/03/07 14:16:12;;;;;;;16.75;15.35;;;;;;;;;;5107181;28;20747;-42
2021/03/07 14:18:37;;;;;;;17.40;15.90;;;;;;;;;;5105444;28;20642;-43
2021/03/07 14:21:03;;;;;;;15.43;14.13;;;;;;;;;;5103727;28;20261;-43
2021/03/07 14:23:29;;;;;;;18.00;16.33;;;;;;;;;;5099851;28;20796;-43
2021/03/07 14:25:54;;;;;;;16.50;15.10;;;;;;;;;;5106249;28;20647;-43
2021/03/07 14:28:19;;;;;;;17.13;15.68;;;;;;;;;;5105130;28;20188;-43
2021/03/07 14:30:44;;;;;;;16.73;15.40;;;;;;;;;;5105220;28;20215;-44